createdAt,value
2022-09-15T00:01:22.906Z,13.22
2022-09-15T00:06:26.903Z,13.42
2022-09-15T00:11:33.232Z,13.46
2022-09-15T00:16:39.190Z,13.38
2022-09-15T00:21:43.554Z,13.49
2022-09-15T00:26:47.466Z,13.37
2022-09-15T00:31:52.760Z,13.21
2022-09-15T00:36:56.702Z,13.28
2022-09-15T00:42:01.194Z,13.42
2022-09-15T00:47:19.211Z,13.40
2022-09-15T00:52:30.223Z,13.14
2022-09-15T00:57:37.715Z,13.05
2022-09-15T01:02:44.575Z,12.99
2022-09-15T01:07:53.369Z,12.91
2022-09-15T01:13:00.300Z,12.65
2022-09-15T01:18:14.979Z,12.56
2022-09-15T01:23:53.722Z,12.58
2022-09-15T01:29:35.383Z,12.62
2022-09-15T01:34:46.098Z,12.56
2022-09-15T01:39:54.473Z,12.74
2022-09-15T01:45:02.048Z,12.47
2022-09-15T01:50:13.019Z,12.39
2022-09-15T01:55:34.674Z,12.33
2022-09-15T02:00:43.409Z,12.30
2022-09-15T02:05:59.025Z,12.14
2022-09-15T02:11:12.891Z,12.22
2022-09-15T02:16:21.093Z,12.14
2022-09-15T02:21:31.698Z,12.33
2022-09-15T02:26:39.695Z,12.24
2022-09-15T02:31:45.124Z,12.37
2022-09-15T02:36:52.343Z,12.22
2022-09-15T02:41:56.231Z,12.07
2022-09-15T02:47:02.057Z,11.92
2022-09-15T02:52:07.468Z,11.99
2022-09-15T02:57:11.467Z,12.04
2022-09-15T03:02:15.506Z,12.15
2022-09-15T03:07:21.747Z,12.35
2022-09-15T03:12:25.929Z,12.45
2022-09-15T03:17:29.968Z,12.26
2022-09-15T03:22:35.313Z,12.28
2022-09-15T03:27:39.692Z,12.33
2022-09-15T03:32:43.583Z,12.25
2022-09-15T03:37:49.546Z,12.24
2022-09-15T03:42:53.494Z,12.08
2022-09-15T03:47:57.541Z,12.04
2022-09-15T03:53:03.268Z,11.96
2022-09-15T03:58:07.181Z,11.91
2022-09-15T04:03:12.353Z,11.85
2022-09-15T04:08:17.644Z,11.89
2022-09-15T04:13:25.511Z,11.79
2022-09-15T04:18:33.232Z,11.92
2022-09-15T04:23:39.175Z,11.99
2022-09-15T04:28:43.021Z,12.18
2022-09-15T04:33:47.792Z,12.27
2022-09-15T04:38:53.142Z,12.28
2022-09-15T04:43:57.109Z,12.47
2022-09-15T04:49:01.179Z,12.63
2022-09-15T04:54:07.001Z,12.83
2022-09-15T04:59:15.551Z,13.08
2022-09-15T05:04:19.465Z,13.47
2022-09-15T05:09:25.587Z,13.94
2022-09-15T05:14:30.090Z,14.36
2022-09-15T05:19:34.158Z,14.72
2022-09-15T05:24:39.693Z,15.26
2022-09-15T05:29:43.542Z,15.70
2022-09-15T05:34:47.500Z,15.99
2022-09-15T05:39:52.837Z,16.20
2022-09-15T05:44:56.739Z,16.20
2022-09-15T05:50:00.662Z,16.52
2022-09-15T05:55:06.447Z,16.86
2022-09-15T06:00:11.740Z,17.37
2022-09-15T06:05:19.097Z,17.74
2022-09-15T06:10:25.452Z,18.27
2022-09-15T06:15:29.416Z,18.82
2022-09-15T06:20:33.311Z,19.33
2022-09-15T06:25:38.531Z,19.64
2022-09-15T06:30:43.029Z,20.08
2022-09-15T06:35:47.008Z,20.59
2022-09-15T06:41:01.274Z,21.01
2022-09-15T06:46:07.572Z,21.14
2022-09-15T06:51:13.339Z,21.16
2022-09-15T06:56:20.677Z,22.01
2022-09-15T07:01:27.235Z,22.43
2022-09-15T07:06:33.965Z,22.44
2022-09-15T07:11:39.429Z,22.94
2022-09-15T07:16:43.374Z,22.90
2022-09-15T07:21:47.278Z,23.82
2022-09-15T07:26:52.685Z,24.04
2022-09-15T07:31:56.696Z,24.05
2022-09-15T07:37:00.613Z,24.49
2022-09-15T07:42:06.142Z,24.87
2022-09-15T07:47:10.057Z,23.86
2022-09-15T07:52:13.943Z,25.30
2022-09-15T07:57:19.318Z,25.36
2022-09-15T08:02:23.380Z,25.36
2022-09-15T08:07:27.292Z,26.08
2022-09-15T08:12:32.708Z,26.13
2022-09-15T08:17:36.757Z,26.16
2022-09-15T08:22:41.263Z,25.74
2022-09-15T08:27:46.625Z,25.81
2022-09-15T08:32:50.778Z,26.22
2022-09-15T08:37:55.317Z,26.29
2022-09-15T08:43:07.096Z,25.99
2022-09-15T08:48:16.630Z,25.97
2022-09-15T08:53:25.379Z,26.07
2022-09-15T08:58:33.033Z,27.22
2022-09-15T09:03:49.671Z,27.84
2022-09-15T09:09:07.107Z,28.31
2022-09-15T09:14:22.346Z,28.68
2022-09-15T09:19:41.096Z,28.63
2022-09-15T09:24:48.116Z,29.06
2022-09-15T09:29:57.716Z,29.23
2022-09-15T09:35:04.973Z,29.01
2022-09-15T09:40:14.413Z,28.88
2022-09-15T09:45:20.544Z,29.49
2022-09-15T09:50:36.970Z,29.28
2022-09-15T09:55:41.745Z,30.08
2022-09-15T11:31:24.761Z,32.32
2022-09-15T11:36:35.537Z,32.14
2022-09-15T11:41:42.386Z,30.95
2022-09-15T11:47:07.866Z,30.25
2022-09-15T11:52:30.840Z,29.79
2022-09-15T11:57:44.178Z,29.72
2022-09-15T12:02:56.634Z,29.74
2022-09-15T12:08:05.684Z,29.42
2022-09-15T12:13:18.581Z,29.71
2022-09-15T12:18:40.787Z,30.04
2022-09-15T12:23:53.651Z,29.62
2022-09-15T12:29:02.523Z,30.69
2022-09-15T12:34:40.811Z,32.11
2022-09-15T12:39:46.063Z,31.35
2022-09-15T12:44:53.825Z,30.41
2022-09-15T12:50:03.377Z,29.78
2022-09-15T12:55:07.707Z,29.84
2022-09-15T13:00:28.915Z,30.24
2022-09-15T13:06:11.013Z,30.32
2022-09-15T13:11:21.809Z,30.40
2022-09-15T13:16:31.518Z,30.49
2022-09-15T13:21:39.624Z,30.63
2022-09-15T13:26:49.073Z,30.62
2022-09-15T13:32:01.717Z,30.41
2022-09-15T13:43:07.351Z,30.53
2022-09-15T13:48:37.553Z,30.57
2022-09-15T13:53:52.459Z,30.24
2022-09-15T13:59:10.330Z,30.13
2022-09-15T14:04:19.274Z,30.02
2022-09-15T14:09:26.842Z,30.13
2022-09-15T14:14:40.096Z,30.01
2022-09-15T14:19:44.081Z,29.85
2022-09-15T14:24:48.561Z,29.52
2022-09-15T14:29:57.794Z,29.33
2022-09-15T14:35:05.557Z,29.33
2022-09-15T14:40:20.593Z,29.06
2022-09-15T14:45:56.374Z,29.12
2022-09-15T14:51:04.155Z,29.07
2022-09-15T14:56:12.993Z,29.05
2022-09-15T15:01:22.977Z,28.74
2022-09-15T15:06:32.924Z,28.41
2022-09-15T15:11:37.929Z,27.65
2022-09-15T15:43:24.411Z,24.81
2022-09-15T15:48:35.457Z,24.42
2022-09-15T15:53:42.730Z,24.09
2022-09-15T15:58:47.978Z,23.90
2022-09-15T16:03:51.913Z,23.76
2022-09-15T16:08:59.229Z,23.61
2022-09-15T16:14:05.038Z,23.40
2022-09-15T16:19:09.726Z,23.23
2022-09-15T16:24:15.848Z,23.05
2022-09-15T16:29:26.032Z,22.97
2022-09-15T16:34:29.841Z,22.79
2022-09-15T16:39:33.554Z,22.66
2022-09-15T16:44:40.116Z,22.52
2022-09-15T16:49:43.986Z,22.27
2022-09-15T16:54:47.903Z,22.11
2022-09-15T16:59:53.072Z,22.02
2022-09-15T17:04:57.346Z,22.06
2022-09-15T17:10:01.475Z,22.31
2022-09-15T17:15:19.125Z,22.33
2022-09-15T17:20:24.187Z,22.79
2022-09-15T17:25:31.183Z,23.27
2022-09-15T17:30:37.013Z,23.10
2022-09-15T17:35:40.910Z,22.76
2022-09-15T17:40:46.152Z,22.26
2022-09-15T17:45:51.806Z,21.89
2022-09-15T17:50:55.597Z,22.49
2022-09-15T17:55:59.336Z,22.30
2022-09-15T18:01:04.975Z,21.62
2022-09-15T18:06:12.074Z,21.28
2022-09-15T18:11:15.976Z,21.20
2022-09-15T18:16:21.271Z,21.09
2022-09-15T18:21:29.227Z,20.70
2022-09-15T18:26:32.991Z,20.49
2022-09-15T18:31:38.469Z,20.28
2022-09-15T18:36:42.285Z,20.20
2022-09-15T18:41:46.129Z,20.28
2022-09-15T18:46:51.574Z,20.26
2022-09-15T18:51:58.615Z,20.40
2022-09-15T18:57:02.860Z,19.94
2022-09-15T19:02:10.674Z,20.02
2022-09-15T19:07:14.615Z,19.84
2022-09-15T19:12:18.474Z,19.61
2022-09-15T19:17:24.118Z,19.55
2022-09-15T19:22:27.925Z,19.64
2022-09-15T19:27:31.815Z,19.62
2022-09-15T19:32:37.149Z,19.46
2022-09-15T19:37:43.256Z,19.25
2022-09-15T19:42:47.251Z,19.10
2022-09-15T19:47:52.459Z,19.09
2022-09-15T19:52:59.443Z,18.97
2022-09-15T19:58:03.640Z,18.88
2022-09-15T20:03:09.152Z,18.96
2022-09-15T20:08:12.956Z,19.12
2022-09-15T20:13:18.507Z,19.14
2022-09-15T20:18:24.315Z,19.22
2022-09-15T20:23:28.536Z,18.88
2022-09-15T20:28:32.687Z,18.69
2022-09-15T20:33:39.257Z,18.85
2022-09-15T20:38:44.344Z,18.90
2022-09-15T20:43:48.242Z,18.61
2022-09-15T20:48:53.753Z,18.44
2022-09-15T20:53:59.506Z,18.47
2022-09-15T20:59:04.884Z,18.37
2022-09-15T21:04:11.261Z,18.41
2022-09-15T21:09:15.297Z,18.69
2022-09-15T21:14:19.324Z,18.62
2022-09-15T21:19:24.865Z,18.70
2022-09-15T21:24:28.825Z,18.13
2022-09-15T21:29:32.708Z,18.05
2022-09-15T21:34:37.904Z,17.78
2022-09-15T21:39:41.758Z,17.52
2022-09-15T21:44:45.629Z,17.40
2022-09-15T21:49:51.865Z,17.27
2022-09-15T21:54:55.682Z,17.19
2022-09-15T21:59:59.479Z,17.06
2022-09-15T22:05:04.761Z,16.75
2022-09-15T22:10:09.689Z,16.97
2022-09-15T22:15:13.554Z,16.96
2022-09-15T22:20:19.024Z,17.22
2022-09-15T22:25:23.463Z,17.07
2022-09-15T22:30:27.385Z,16.91
2022-09-15T22:35:33.212Z,16.74
2022-09-15T22:40:37.190Z,16.61
2022-09-15T22:45:41.310Z,16.61
2022-09-15T22:50:47.066Z,16.60
2022-09-15T22:55:51.062Z,16.70
2022-09-15T23:00:54.975Z,16.67
2022-09-15T23:06:01.045Z,16.61
2022-09-15T23:11:06.881Z,16.84
2022-09-15T23:16:11.130Z,16.84
2022-09-15T23:21:16.742Z,16.89
2022-09-15T23:26:22.722Z,16.94
2022-09-15T23:31:26.583Z,16.95
2022-09-15T23:36:32.177Z,16.97
2022-09-15T23:41:36.872Z,16.91
2022-09-15T23:46:40.859Z,16.74
2022-09-15T23:51:46.144Z,16.46
2022-09-15T23:56:49.956Z,16.26
